createdAt,value
2017-05-01T00:00:46.378Z,99890.19
2017-05-01T00:03:12.777Z,99881.17
2017-05-01T00:05:39.114Z,99880.73
2017-05-01T00:08:05.731Z,99880.78
2017-05-01T00:10:32.085Z,99880.37
2017-05-01T00:12:58.416Z,99880.88
2017-05-01T00:15:24.763Z,99873.99
2017-05-01T00:17:51.138Z,99883.48
2017-05-01T00:20:17.462Z,99882.34
2017-05-01T00:22:43.777Z,99884.09
2017-05-01T00:25:10.097Z,99881.14
2017-05-01T00:27:36.436Z,99873.91
2017-05-01T00:30:02.930Z,99880.23
2017-05-01T00:32:29.261Z,99887.86
2017-05-01T00:34:55.619Z,99876.31
2017-05-01T00:37:21.961Z,99878.15
2017-05-01T00:39:48.593Z,99879.52
2017-05-01T00:42:14.946Z,99884.44
2017-05-01T00:44:41.293Z,99875.94
2017-05-01T00:47:07.606Z,99884.14
2017-05-01T00:49:34.024Z,99884.80
2017-05-01T00:52:00.368Z,99881.27
2017-05-01T00:54:26.724Z,99883.55
2017-05-01T00:56:53.072Z,99877.00
2017-05-01T00:59:19.394Z,99876.09
2017-05-01T01:01:45.735Z,99878.77
2017-05-01T01:04:12.073Z,99872.66
2017-05-01T01:06:38.428Z,99873.46
2017-05-01T01:09:11.922Z,99870.39
2017-05-01T01:11:38.349Z,99863.30
2017-05-01T01:14:04.708Z,99867.27
2017-05-01T01:16:31.063Z,99864.34
2017-05-01T01:18:57.502Z,99863.42
2017-05-01T01:21:24.029Z,99855.98
2017-05-01T01:23:50.448Z,99852.98
2017-05-01T01:26:16.773Z,99856.23
2017-05-01T01:28:43.405Z,99851.33
2017-05-01T01:31:09.839Z,99862.06
2017-05-01T01:33:37.007Z,99855.16
2017-05-01T01:36:04.366Z,99853.28
2017-05-01T01:38:31.548Z,99857.14
2017-05-01T01:40:58.731Z,99861.91
2017-05-01T01:43:25.215Z,99870.13
2017-05-01T01:45:51.629Z,99865.19
2017-05-01T01:48:18.057Z,99862.85
2017-05-01T01:50:44.531Z,99861.19
2017-05-01T01:53:10.909Z,99855.11
2017-05-01T01:55:37.290Z,99864.98
2017-05-01T01:58:03.659Z,99860.62
2017-05-01T02:00:30.161Z,99865.03
2017-05-01T02:02:56.561Z,99872.89
2017-05-01T02:05:22.959Z,99874.78
2017-05-01T02:07:49.362Z,99869.44
2017-05-01T02:10:15.752Z,99873.48
2017-05-01T02:12:42.169Z,99879.15
2017-05-01T02:15:08.589Z,99889.13
2017-05-01T02:17:35.070Z,99898.55
2017-05-01T02:20:01.502Z,99900.87
2017-05-01T02:22:30.018Z,99904.05
2017-05-01T02:24:56.564Z,99908.47
2017-05-01T02:27:22.996Z,99902.43
2017-05-01T02:29:49.404Z,99891.44
2017-05-01T02:32:15.920Z,99894.05
2017-05-01T02:34:42.296Z,99900.02
2017-05-01T02:37:08.701Z,99892.83
2017-05-01T02:39:35.263Z,99894.37
2017-05-01T02:42:01.657Z,99904.63
2017-05-01T02:44:28.118Z,99902.13
2017-05-01T02:46:54.544Z,99903.25
2017-05-01T02:49:20.969Z,99906.56
2017-05-01T02:51:47.375Z,99910.93
2017-05-01T02:54:13.775Z,99906.67
2017-05-01T02:56:40.185Z,99905.45
2017-05-01T02:59:06.581Z,99900.69
2017-05-01T03:01:32.973Z,99909.92
2017-05-01T03:03:59.416Z,99913.64
2017-05-01T03:06:25.995Z,99913.41
2017-05-01T03:08:52.397Z,99913.70
2017-05-01T03:11:18.803Z,99907.70
2017-05-01T03:13:45.194Z,99913.59
2017-05-01T03:16:11.679Z,99912.75
2017-05-01T03:18:38.071Z,99915.91
2017-05-01T03:21:04.471Z,99924.33
2017-05-01T03:23:30.796Z,99919.25
2017-05-01T03:25:57.140Z,99926.25
2017-05-01T03:28:23.491Z,99923.01
2017-05-01T03:30:49.839Z,99925.97
2017-05-01T03:33:16.347Z,99925.58
2017-05-01T03:35:42.698Z,99921.94
2017-05-01T03:38:09.031Z,99929.00
2017-05-01T03:40:35.360Z,99933.94
2017-05-01T03:43:01.770Z,99937.57
2017-05-01T03:45:28.104Z,99930.12
2017-05-01T03:47:54.438Z,99927.06
2017-05-01T03:50:20.788Z,99932.51
2017-05-01T03:52:47.415Z,99939.90
2017-05-01T03:55:13.758Z,99939.81
2017-05-01T03:57:40.083Z,99938.05
2017-05-01T04:00:06.439Z,99941.94
2017-05-01T04:02:32.788Z,99943.80
2017-05-01T04:04:59.108Z,99941.25
2017-05-01T04:07:25.436Z,99950.08
2017-05-01T04:09:51.789Z,99948.18
2017-05-01T04:12:18.140Z,99952.61
2017-05-01T04:14:44.613Z,99957.44
2017-05-01T04:17:10.956Z,99952.54
2017-05-01T04:19:37.280Z,99958.62
2017-05-01T04:22:03.628Z,99951.36
2017-05-01T04:24:29.954Z,99953.63
2017-05-01T04:26:56.285Z,99954.04
2017-05-01T04:29:22.804Z,99959.97
2017-05-01T04:31:49.194Z,99958.29
2017-05-01T04:34:15.558Z,99963.97
2017-05-01T04:36:41.920Z,99961.06
2017-05-01T04:39:09.158Z,99964.45
2017-05-01T04:41:35.495Z,99970.57
2017-05-01T04:44:01.834Z,99969.20
2017-05-01T04:46:28.165Z,99967.89
2017-05-01T04:48:54.533Z,99971.42
2017-05-01T04:51:20.885Z,99977.25
2017-05-01T04:53:47.229Z,99985.87
2017-05-01T04:56:13.597Z,99987.28
2017-05-01T04:58:39.937Z,99991.61
2017-05-01T05:01:06.246Z,99993.28
2017-05-01T05:03:32.609Z,100003.41
2017-05-01T05:05:59.099Z,100009.19
2017-05-01T05:08:25.418Z,100012.52
2017-05-01T05:10:51.770Z,100013.98
2017-05-01T05:13:18.095Z,100017.48
2017-05-01T05:15:44.624Z,100010.80
2017-05-01T05:18:10.968Z,100017.95
2017-05-01T05:20:37.314Z,100015.27
2017-05-01T05:23:03.664Z,100018.77
2017-05-01T05:25:30.055Z,100014.94
2017-05-01T05:27:56.426Z,100016.37
2017-05-01T05:30:22.749Z,100022.66
2017-05-01T05:32:49.098Z,100024.91
2017-05-01T05:35:15.592Z,100024.91
2017-05-01T05:37:41.925Z,100031.29
2017-05-01T05:40:08.264Z,100033.53
2017-05-01T05:42:34.638Z,100037.59
2017-05-01T05:45:01.012Z,100042.20
2017-05-01T05:47:27.359Z,100040.92
2017-05-01T05:49:53.697Z,100044.28
2017-05-01T05:52:20.029Z,100046.28
2017-05-01T05:54:46.329Z,100051.71
2017-05-01T05:57:13.867Z,100053.58
2017-05-01T05:59:40.334Z,100065.75
2017-05-01T06:02:06.677Z,100069.19
2017-05-01T06:04:33.048Z,100072.78
2017-05-01T06:06:59.402Z,100080.19
2017-05-01T06:09:25.732Z,100082.05
2017-05-01T06:11:52.105Z,100090.81
2017-05-01T06:14:18.562Z,100088.01
2017-05-01T06:16:44.874Z,100097.41
2017-05-01T06:19:11.224Z,100094.63
2017-05-01T06:21:37.564Z,100098.87
2017-05-01T06:24:03.905Z,100099.36
2017-05-01T06:26:30.226Z,100103.02
2017-05-01T06:28:57.070Z,100100.37
2017-05-01T06:31:23.452Z,100111.18
2017-05-01T06:33:49.793Z,100115.28
2017-05-01T06:36:16.127Z,100119.51
2017-05-01T06:38:42.449Z,100125.33
2017-05-01T06:41:08.812Z,100130.31
2017-05-01T06:43:35.161Z,100133.62
2017-05-01T06:46:01.533Z,100143.26
2017-05-01T06:48:27.871Z,100146.38
2017-05-01T06:50:54.185Z,100143.93
2017-05-01T06:53:20.545Z,100150.41
2017-05-01T06:55:46.898Z,100162.17
2017-05-01T06:58:13.242Z,100168.78
2017-05-01T07:00:39.586Z,100173.03
2017-05-01T07:03:05.927Z,100173.02
2017-05-01T07:05:32.266Z,100178.30
2017-05-01T07:07:58.616Z,100186.90
2017-05-01T07:10:24.969Z,100185.27
2017-05-01T07:12:51.329Z,100188.75
2017-05-01T07:15:17.802Z,100189.97
2017-05-01T07:17:44.153Z,100203.28
2017-05-01T07:20:10.492Z,100204.91
2017-05-01T07:22:36.817Z,100209.48
2017-05-01T07:25:03.289Z,100214.17
2017-05-01T07:27:29.627Z,100218.29
2017-05-01T07:29:55.972Z,100218.19
2017-05-01T07:32:23.323Z,100221.15
2017-05-01T07:34:49.669Z,100223.63
2017-05-01T07:37:16.628Z,100223.80
2017-05-01T07:39:42.974Z,100226.30
2017-05-01T07:42:09.333Z,100227.23
2017-05-01T07:44:35.675Z,100222.59
2017-05-01T07:47:01.991Z,100231.19
2017-05-01T07:49:28.329Z,100228.13
2017-05-01T07:51:54.660Z,100239.70
2017-05-01T07:54:20.997Z,100246.30
2017-05-01T07:56:47.341Z,100253.55
2017-05-01T07:59:13.703Z,100256.81
2017-05-01T08:01:40.054Z,100264.00
2017-05-01T08:04:06.392Z,100274.66
2017-05-01T08:06:32.721Z,100282.70
2017-05-01T08:08:59.035Z,100282.09
2017-05-01T08:11:25.382Z,100279.58
2017-05-01T08:13:51.743Z,100291.41
2017-05-01T08:16:18.097Z,100291.47
2017-05-01T08:18:44.438Z,100301.23
2017-05-01T08:21:10.764Z,100308.41
2017-05-01T08:23:37.108Z,100307.17
2017-05-01T08:26:03.464Z,100309.36
2017-05-01T08:28:29.921Z,100310.59
2017-05-01T08:30:56.245Z,100313.70
2017-05-01T08:33:22.557Z,100312.20
2017-05-01T08:35:48.895Z,100312.30
2017-05-01T08:38:15.422Z,100320.83
2017-05-01T08:40:41.752Z,100326.08
2017-05-01T08:43:08.108Z,100329.67
2017-05-01T08:45:34.468Z,100337.38
2017-05-01T08:48:00.875Z,100338.72
2017-05-01T08:50:27.248Z,100339.01
2017-05-01T08:52:53.593Z,100339.89
2017-05-01T08:55:19.936Z,100339.57
2017-05-01T08:57:46.303Z,100341.60
2017-05-01T09:00:12.657Z,100337.30
2017-05-01T09:02:38.993Z,100339.84
2017-05-01T09:05:05.312Z,100341.36
2017-05-01T09:07:31.656Z,100341.75
2017-05-01T09:09:58.150Z,100343.13
2017-05-01T09:12:24.508Z,100344.48
2017-05-01T09:14:50.838Z,100354.42
2017-05-01T09:17:17.185Z,100355.84
2017-05-01T09:19:43.538Z,100357.83
2017-05-01T09:22:09.956Z,100362.97
2017-05-01T09:24:36.446Z,100354.98
2017-05-01T09:27:02.787Z,100355.95
2017-05-01T09:29:29.153Z,100360.53
2017-05-01T09:31:55.503Z,100360.75
2017-05-01T09:34:22.349Z,100369.59
2017-05-01T09:36:48.707Z,100368.88
2017-05-01T09:39:15.100Z,100372.70
2017-05-01T09:41:41.445Z,100381.44
2017-05-01T09:44:07.837Z,100371.77
2017-05-01T09:46:34.197Z,100377.16
2017-05-01T09:49:00.512Z,100375.72
2017-05-01T09:51:26.895Z,100378.89
2017-05-01T09:53:53.226Z,100385.06
2017-05-01T09:56:19.572Z,100388.58
2017-05-01T09:58:45.906Z,100396.03
2017-05-01T10:01:12.370Z,100390.17
2017-05-01T10:03:38.706Z,100391.91
2017-05-01T10:06:05.086Z,100398.61
2017-05-01T10:08:31.423Z,100406.35
2017-05-01T10:10:57.865Z,100409.17
2017-05-01T10:13:24.201Z,100405.80
2017-05-01T10:15:50.524Z,100412.27
2017-05-01T10:18:16.891Z,100411.87
2017-05-01T10:20:43.419Z,100417.95
2017-05-01T10:23:09.760Z,100417.78
2017-05-01T10:25:36.106Z,100425.84
2017-05-01T10:28:02.437Z,100422.19
2017-05-01T10:30:28.871Z,100430.98
2017-05-01T10:32:55.210Z,100423.44
2017-05-01T10:35:21.569Z,100420.92
2017-05-01T10:37:47.920Z,100424.16
2017-05-01T10:40:14.283Z,100429.59
2017-05-01T10:42:40.612Z,100428.20
2017-05-01T10:45:06.965Z,100426.56
2017-05-01T10:47:33.293Z,100431.25
2017-05-01T10:49:59.649Z,100435.05
2017-05-01T10:52:26.014Z,100437.55
2017-05-01T10:54:52.369Z,100433.73
2017-05-01T10:57:18.721Z,100434.65
2017-05-01T10:59:45.065Z,100442.97
2017-05-01T11:02:11.404Z,100431.31
2017-05-01T11:04:37.731Z,100444.25
2017-05-01T11:07:05.265Z,100445.81
2017-05-01T11:09:31.623Z,100445.55
2017-05-01T11:11:57.970Z,100447.36
2017-05-01T11:14:24.452Z,100446.91
2017-05-01T11:16:50.803Z,100450.31
2017-05-01T11:19:17.141Z,100463.47
2017-05-01T11:21:43.475Z,100468.65
2017-05-01T11:24:09.934Z,100461.17
2017-05-01T11:26:36.258Z,100459.38
2017-05-01T11:29:02.642Z,100461.59
2017-05-01T11:31:28.976Z,100465.65
2017-05-01T11:33:55.466Z,100466.22
2017-05-01T11:36:21.792Z,100471.95
2017-05-01T11:38:48.138Z,100472.83
2017-05-01T11:41:14.470Z,100469.23
2017-05-01T11:43:41.025Z,100463.71
2017-05-01T11:46:07.385Z,100467.84
2017-05-01T11:48:33.749Z,100470.83
2017-05-01T11:51:00.092Z,100474.39
2017-05-01T11:53:26.449Z,100474.49
2017-05-01T11:55:52.795Z,100478.44
2017-05-01T11:58:19.141Z,100471.73
2017-05-01T12:00:45.511Z,100481.34
2017-05-01T12:03:11.882Z,100479.59
2017-05-01T12:05:38.246Z,100485.50
2017-05-01T12:08:04.635Z,100492.77
2017-05-01T12:10:31.217Z,100490.72
2017-05-01T12:12:57.574Z,100485.58
2017-05-01T12:15:23.907Z,100485.14
2017-05-01T12:17:50.261Z,100496.04
2017-05-01T12:20:16.596Z,100499.59
2017-05-01T12:22:42.946Z,100506.62
2017-05-01T12:25:09.328Z,100517.27
2017-05-01T12:27:35.701Z,100509.77
2017-05-01T12:30:02.206Z,100516.73
2017-05-01T12:32:28.558Z,100511.35
2017-05-01T12:34:54.909Z,100518.02
2017-05-01T12:37:21.256Z,100519.94
2017-05-01T12:39:47.658Z,100517.03
2017-05-01T12:42:14.008Z,100524.50
2017-05-01T12:44:40.383Z,100526.07
2017-05-01T12:47:06.744Z,100530.12
2017-05-01T12:49:33.101Z,100530.80
2017-05-01T12:51:59.422Z,100534.90
2017-05-01T12:54:25.780Z,100531.92
2017-05-01T12:56:52.124Z,100529.59
2017-05-01T12:59:18.500Z,100533.98
2017-05-01T13:01:44.873Z,100536.20
2017-05-01T13:04:12.307Z,100535.83
2017-05-01T13:06:38.894Z,100543.50
2017-05-01T13:09:05.239Z,100548.18
2017-05-01T13:11:31.590Z,100549.39
2017-05-01T13:13:57.984Z,100552.92
2017-05-01T13:16:24.337Z,100551.79
2017-05-01T13:18:50.808Z,100553.11
2017-05-01T13:21:17.694Z,100558.14
2017-05-01T13:23:44.058Z,100559.63
2017-05-01T13:26:10.416Z,100561.28
2017-05-01T13:28:36.780Z,100572.58
2017-05-01T13:31:03.139Z,100570.81
2017-05-01T13:33:29.491Z,100570.16
2017-05-01T13:35:55.858Z,100573.28
2017-05-01T13:38:22.200Z,100576.33
2017-05-01T13:40:48.539Z,100576.45
2017-05-01T13:43:14.879Z,100586.11
2017-05-01T13:45:41.290Z,100585.13
2017-05-01T13:48:13.876Z,100585.86
2017-05-01T13:50:41.737Z,100591.80
2017-05-01T13:53:08.223Z,100590.38
2017-05-01T13:55:34.626Z,100593.06
2017-05-01T13:58:01.016Z,100594.99
2017-05-01T14:00:27.399Z,100596.41
2017-05-01T14:02:54.117Z,100595.52
2017-05-01T14:05:21.080Z,100600.48
2017-05-01T14:07:47.731Z,100606.55
2017-05-01T14:10:17.037Z,100604.50
2017-05-01T14:12:43.382Z,100608.34
2017-05-01T14:15:09.885Z,100617.11
2017-05-01T14:17:37.006Z,100612.77
2017-05-01T14:20:03.419Z,100623.31
2017-05-01T14:22:30.004Z,100626.38
2017-05-01T14:24:56.363Z,100625.66
2017-05-01T14:27:23.529Z,100631.52
2017-05-01T14:29:49.926Z,100624.73
2017-05-01T14:32:16.282Z,100623.41
2017-05-01T14:34:42.851Z,100626.84
2017-05-01T14:37:09.209Z,100630.71
2017-05-01T14:39:35.548Z,100634.04
2017-05-01T14:42:02.136Z,100637.86
2017-05-01T14:44:28.540Z,100637.74
2017-05-01T14:46:57.536Z,100641.05
2017-05-01T14:49:24.081Z,100644.78
2017-05-01T14:51:50.415Z,100645.05
2017-05-01T14:54:16.773Z,100643.64
2017-05-01T14:56:44.039Z,100648.27
2017-05-01T14:59:11.032Z,100648.24
2017-05-01T15:01:38.290Z,100652.69
2017-05-01T15:04:05.395Z,100653.05
2017-05-01T15:06:32.017Z,100656.81
2017-05-01T15:08:58.645Z,100654.99
2017-05-01T15:11:25.638Z,100652.86
2017-05-01T15:13:52.040Z,100656.06
2017-05-01T15:16:18.990Z,100668.61
2017-05-01T15:18:45.389Z,100663.14
2017-05-01T15:21:12.539Z,100669.19
2017-05-01T15:23:38.952Z,100670.33
2017-05-01T15:26:05.300Z,100675.85
2017-05-01T15:28:31.674Z,100675.06
2017-05-01T15:30:58.167Z,100674.66
2017-05-01T15:33:24.547Z,100685.25
2017-05-01T15:35:50.919Z,100684.59
2017-05-01T15:38:17.809Z,100692.47
2017-05-01T15:40:44.174Z,100691.78
2017-05-01T15:43:11.241Z,100692.25
2017-05-01T15:45:37.689Z,100693.91
2017-05-01T15:48:04.123Z,100691.83
2017-05-01T15:50:30.494Z,100691.31
2017-05-01T15:52:56.847Z,100688.67
2017-05-01T15:55:26.533Z,100693.11
2017-05-01T15:57:56.668Z,100693.44
2017-05-01T16:16:41.518Z,100703.55
2017-05-01T16:19:08.086Z,100710.09
2017-05-01T16:21:34.632Z,100705.52
2017-05-01T16:24:00.978Z,100709.67
2017-05-01T16:26:27.310Z,100716.10
2017-05-01T16:28:53.664Z,100713.42
2017-05-01T16:31:20.129Z,100717.84
2017-05-01T16:33:46.504Z,100720.23
2017-05-01T16:36:12.844Z,100717.63
2017-05-01T16:38:39.222Z,100722.61
2017-05-01T16:41:05.607Z,100713.45
2017-05-01T16:43:32.010Z,100724.06
2017-05-01T16:45:58.333Z,100726.08
2017-05-01T16:48:24.695Z,100720.38
2017-05-01T16:50:51.072Z,100725.40
2017-05-01T16:53:17.437Z,100725.69
2017-05-01T16:55:43.810Z,100728.63
2017-05-01T16:58:10.327Z,100734.34
2017-05-01T17:00:36.694Z,100743.55
2017-05-01T17:03:03.088Z,100738.52
2017-05-01T17:05:29.487Z,100738.43
2017-05-01T17:07:55.895Z,100734.39
2017-05-01T17:10:22.388Z,100736.21
2017-05-01T17:12:48.783Z,100743.25
2017-05-01T17:15:15.152Z,100747.89
2017-05-01T17:17:48.625Z,100753.61
2017-05-01T17:20:15.003Z,100752.05
2017-05-01T17:22:41.398Z,100751.78
2017-05-01T17:25:07.759Z,100754.64
2017-05-01T17:27:34.106Z,100753.33
2017-05-01T17:30:00.522Z,100754.64
2017-05-01T17:32:26.971Z,100760.74
2017-05-01T17:34:53.335Z,100761.02
2017-05-01T17:37:20.213Z,100767.23
2017-05-01T17:39:46.769Z,100772.20
2017-05-01T17:42:13.136Z,100778.45
2017-05-01T17:44:39.507Z,100774.36
2017-05-01T17:47:06.900Z,100768.33
2017-05-01T17:49:34.391Z,100770.37
2017-05-01T17:52:01.671Z,100773.04
2017-05-01T17:54:28.129Z,100776.75
2017-05-01T17:56:54.673Z,100775.34
2017-05-01T17:59:21.133Z,100777.05
2017-05-01T18:01:47.798Z,100779.73
2017-05-01T18:04:14.176Z,100779.31
2017-05-01T18:06:40.543Z,100773.85
2017-05-01T18:09:07.088Z,100777.30
2017-05-01T18:11:33.571Z,100784.42
2017-05-01T18:13:59.937Z,100787.08
2017-05-01T18:16:26.373Z,100779.17
2017-05-01T18:18:52.805Z,100784.97
2017-05-01T18:21:20.089Z,100787.77
2017-05-01T18:23:47.541Z,100788.72
2017-05-01T18:26:15.459Z,100792.61
2017-05-01T18:28:42.541Z,100790.11
2017-05-01T18:31:09.412Z,100792.44
2017-05-01T18:33:36.309Z,100789.60
2017-05-01T18:36:03.618Z,100798.25
2017-05-01T18:38:31.358Z,100796.99
2017-05-01T18:40:59.389Z,100796.22
2017-05-01T18:43:27.066Z,100801.09
2017-05-01T18:45:55.034Z,100798.68
2017-05-01T18:48:21.914Z,100803.27
2017-05-01T18:50:49.583Z,100809.95
2017-05-01T18:53:17.419Z,100808.79
2017-05-01T18:55:44.306Z,100806.55
2017-05-01T18:58:13.338Z,100817.95
2017-05-01T19:00:41.438Z,100818.19
2017-05-01T19:03:09.564Z,100821.14
2017-05-01T19:05:37.664Z,100821.17
2017-05-01T19:08:05.400Z,100824.77
2017-05-01T19:10:33.280Z,100828.45
2017-05-01T19:13:00.845Z,100834.06
2017-05-01T19:15:28.825Z,100839.05
2017-05-01T19:17:56.032Z,100834.47
2017-05-01T19:20:23.916Z,100837.71
2017-05-01T19:22:51.948Z,100844.86
2017-05-01T19:25:20.112Z,100841.47
2017-05-01T19:27:48.067Z,100839.31
2017-05-01T19:30:16.230Z,100844.09
2017-05-01T19:32:44.268Z,100841.83
2017-05-01T19:35:12.332Z,100844.52
2017-05-01T19:37:40.312Z,100840.26
2017-05-01T19:40:08.127Z,100843.03
2017-05-01T19:42:36.008Z,100846.68
2017-05-01T19:45:04.316Z,100845.30
2017-05-01T19:47:32.343Z,100850.21
2017-05-01T19:50:00.043Z,100847.22
2017-05-01T19:52:28.024Z,100850.01
2017-05-01T19:54:55.303Z,100852.80
2017-05-01T19:57:23.530Z,100860.27
2017-05-01T19:59:51.131Z,100866.77
2017-05-01T20:02:18.463Z,100865.66
2017-05-01T20:04:44.917Z,100862.55
2017-05-01T20:07:11.645Z,100856.45
2017-05-01T20:09:38.057Z,100866.22
2017-05-01T20:12:04.608Z,100857.41
2017-05-01T20:14:31.272Z,100863.45
2017-05-01T20:16:58.033Z,100860.87
2017-05-01T20:19:24.552Z,100864.45
2017-05-01T20:21:50.917Z,100865.27
2017-05-01T20:24:17.247Z,100865.86
2017-05-01T20:26:43.683Z,100863.90
2017-05-01T20:29:10.236Z,100863.35
2017-05-01T20:31:36.714Z,100866.03
2017-05-01T20:34:03.093Z,100864.84
2017-05-01T20:36:29.476Z,100856.25
2017-05-01T20:38:55.865Z,100853.67
2017-05-01T20:41:22.210Z,100854.24
2017-05-01T20:43:48.574Z,100847.61
2017-05-01T20:46:15.466Z,100848.25
2017-05-01T20:48:42.000Z,100854.59
2017-05-01T20:51:08.407Z,100855.95
2017-05-01T20:53:34.852Z,100858.09
2017-05-01T20:56:01.957Z,100859.73
2017-05-01T20:58:28.382Z,100858.52
2017-05-01T21:00:54.769Z,100855.94
2017-05-01T21:03:21.113Z,100854.37
2017-05-01T21:05:47.455Z,100857.78
2017-05-01T21:08:13.811Z,100862.65
2017-05-01T21:10:40.212Z,100865.45
2017-05-01T21:13:06.565Z,100868.45
2017-05-01T21:15:32.886Z,100870.55
2017-05-01T21:17:59.259Z,100874.59
2017-05-01T21:20:25.784Z,100873.88
2017-05-01T21:22:52.150Z,100874.70
2017-05-01T21:25:18.502Z,100879.34
2017-05-01T21:27:45.114Z,100879.52
2017-05-01T21:30:11.586Z,100878.02
2017-05-01T21:32:38.028Z,100881.52
2017-05-01T21:35:04.359Z,100885.03
2017-05-01T21:37:30.862Z,100882.50
2017-05-01T21:39:57.510Z,100889.41
2017-05-01T21:42:23.846Z,100884.95
2017-05-01T21:44:50.201Z,100885.41
2017-05-01T21:47:16.655Z,100888.69
2017-05-01T21:49:43.013Z,100890.66
2017-05-01T21:52:09.767Z,100884.42
2017-05-01T21:54:36.365Z,100884.44
2017-05-01T21:57:02.709Z,100888.63
2017-05-01T21:59:29.067Z,100893.56
2017-05-01T22:01:55.447Z,100892.92
2017-05-01T22:04:21.902Z,100893.69
2017-05-01T22:06:48.246Z,100896.25
2017-05-01T22:09:14.633Z,100886.52
2017-05-01T22:11:41.012Z,100888.90
2017-05-01T22:14:07.343Z,100891.55
2017-05-01T22:16:33.693Z,100889.68
2017-05-01T22:19:00.121Z,100892.49
2017-05-01T22:21:26.526Z,100897.53
2017-05-01T22:23:52.923Z,100895.50
2017-05-01T22:26:19.300Z,100901.04
2017-05-01T22:28:45.798Z,100898.52
2017-05-01T22:31:12.448Z,100903.00
2017-05-01T22:33:38.797Z,100895.70
2017-05-01T22:36:05.116Z,100901.41
2017-05-01T22:38:31.463Z,100903.99
2017-05-01T22:40:57.815Z,100904.47
2017-05-01T22:43:24.133Z,100907.59
2017-05-01T22:45:50.477Z,100907.14
2017-05-01T22:48:16.861Z,100904.87
2017-05-01T22:50:43.190Z,100901.25
2017-05-01T22:53:09.566Z,100906.27
2017-05-01T22:55:35.970Z,100908.39
2017-05-01T22:58:02.549Z,100904.72
2017-05-01T23:00:28.897Z,100902.41
2017-05-01T23:02:55.234Z,100902.11
2017-05-01T23:05:21.609Z,100902.78
2017-05-01T23:07:48.630Z,100903.50
2017-05-01T23:10:15.314Z,100899.33
2017-05-01T23:12:42.887Z,100901.50
2017-05-01T23:15:09.265Z,100902.95
2017-05-01T23:17:35.622Z,100901.94
2017-05-01T23:20:01.982Z,100900.23
2017-05-01T23:22:28.317Z,100902.94
2017-05-01T23:24:54.694Z,100903.48
2017-05-01T23:27:21.059Z,100901.33
2017-05-01T23:29:47.382Z,100903.79
2017-05-01T23:32:13.756Z,100904.19
2017-05-01T23:34:40.122Z,100903.07
2017-05-01T23:37:06.484Z,100903.73
2017-05-01T23:39:32.962Z,100900.44
2017-05-01T23:41:59.318Z,100898.31
2017-05-01T23:44:25.655Z,100900.36
2017-05-01T23:46:51.981Z,100892.73
2017-05-01T23:49:18.604Z,100896.34
2017-05-01T23:51:44.964Z,100895.36
2017-05-01T23:54:11.320Z,100894.69
2017-05-01T23:56:37.663Z,100893.43
2017-05-01T23:59:04.042Z,100901.78
